Time;durP1;ratioP1;P1;durP2;ratioP2;P2;SDS_P1;SDS_P2;PMS_P1;PMS_P2;Temp;Humidity;BMP_temperature;BMP_pressure;BME280_temperature;BME280_humidity;BME280_pressure;Samples;Min_cycle;Max_cycle;Signal;HPM_P1;HPM_P2
2022/11/25 00:01:23;;;;;;;12.10;3.43;;;9.10;99.90;;;;;;5063975;28;20213;-69
2022/11/25 00:03:52;;;;;;;16.30;4.23;;;9.10;99.90;;;;;;5065641;28;20306;-70
2022/11/25 00:06:20;;;;;;;16.27;3.60;;;9.10;99.90;;;;;;5061607;28;20230;-69
2022/11/25 00:08:50;;;;;;;14.27;4.23;;;9.10;99.90;;;;;;5051273;28;20214;-68
2022/11/25 00:11:17;;;;;;;15.43;4.00;;;9.10;99.90;;;;;;5060916;28;20287;-69
2022/11/25 00:13:45;;;;;;;19.20;4.03;;;9.20;99.90;;;;;;5064180;28;20207;-69
2022/11/25 00:16:14;;;;;;;15.90;4.13;;;9.20;99.90;;;;;;5062233;28;20673;-70
2022/11/25 00:18:46;;;;;;;15.00;3.60;;;9.20;99.90;;;;;;5064041;28;20749;-70
2022/11/25 00:21:15;;;;;;;16.73;3.77;;;9.20;99.90;;;;;;5059947;28;20568;-69
2022/11/25 00:23:42;;;;;;;12.43;3.27;;;9.20;99.90;;;;;;5063945;28;20241;-70
2022/11/25 00:26:13;;;;;;;13.07;4.27;;;9.30;99.90;;;;;;5061058;28;20242;-69
2022/11/25 00:28:42;;;;;;;18.27;3.73;;;9.30;99.90;;;;;;5061351;28;20296;-68
2022/11/25 00:31:12;;;;;;;14.30;3.33;;;9.30;99.90;;;;;;5064311;28;20207;-68
2022/11/25 00:33:39;;;;;;;15.20;3.53;;;9.30;99.90;;;;;;5059333;28;20214;-70
2022/11/25 00:36:13;;;;;;;16.10;3.63;;;9.30;99.90;;;;;;5061775;28;20323;-68
2022/11/25 00:38:40;;;;;;;15.23;4.13;;;9.30;99.90;;;;;;5060761;28;20679;-68
2022/11/25 00:46:37;;;;;;;16.63;4.70;;;9.20;99.90;;;;;;5060699;28;20211;-68
2022/11/25 00:49:04;;;;;;;16.30;3.93;;;9.20;99.90;;;;;;5066412;28;20243;-69
2022/11/25 00:51:31;;;;;;;16.90;3.70;;;9.20;99.90;;;;;;5061486;28;20648;-70
2022/11/25 00:53:58;;;;;;;18.57;4.10;;;9.10;99.90;;;;;;5061807;28;20202;-69
2022/11/25 00:56:25;;;;;;;25.40;4.60;;;9.10;99.90;;;;;;5062190;28;20230;-70
2022/11/25 00:58:53;;;;;;;10.83;3.30;;;9.10;99.90;;;;;;5059031;28;20217;-69
2022/11/25 01:01:19;;;;;;;14.67;4.20;;;9.10;99.90;;;;;;5061252;28;20311;-70
2022/11/25 01:03:51;;;;;;;14.77;4.10;;;9.00;99.90;;;;;;5062376;28;20569;-69
2022/11/25 01:06:18;;;;;;;18.27;4.67;;;9.00;99.90;;;;;;5049282;28;20208;-69
2022/11/25 01:08:45;;;;;;;15.87;4.03;;;9.00;99.90;;;;;;5062313;28;20732;-70
2022/11/25 01:11:14;;;;;;;18.43;4.60;;;9.00;99.90;;;;;;5060722;28;20243;-69
2022/11/25 01:13:41;;;;;;;16.53;3.73;;;9.00;99.90;;;;;;5062236;28;20249;-70
2022/11/25 01:16:10;;;;;;;19.87;4.90;;;8.90;99.90;;;;;;5063306;28;20223;-70
2022/11/25 01:18:37;;;;;;;18.00;4.70;;;8.90;99.90;;;;;;5059553;28;20287;-70
2022/11/25 01:21:18;;;;;;;22.70;5.33;;;8.90;99.90;;;;;;5060590;28;20209;-71
2022/11/25 01:23:45;;;;;;;18.53;4.27;;;8.90;99.90;;;;;;5058888;28;20353;-70
2022/11/25 01:26:15;;;;;;;18.80;4.03;;;8.90;99.90;;;;;;5047997;28;20219;-70
2022/11/25 01:28:42;;;;;;;20.07;4.77;;;8.90;99.90;;;;;;5052495;28;20211;-71
2022/11/25 01:31:10;;;;;;;18.67;4.20;;;8.90;99.90;;;;;;5060830;28;20215;-71
2022/11/25 01:33:37;;;;;;;20.73;4.47;;;8.80;99.90;;;;;;5047510;28;20570;-71
2022/11/25 01:36:09;;;;;;;20.80;4.53;;;8.90;99.90;;;;;;5032464;28;20240;-71
2022/11/25 01:38:36;;;;;;;22.80;5.03;;;8.90;99.90;;;;;;5019218;28;20221;-71
2022/11/25 01:41:04;;;;;;;21.43;5.00;;;8.80;99.90;;;;;;5020887;28;20234;-69
2022/11/25 01:43:31;;;;;;;19.07;4.30;;;8.80;99.90;;;;;;5014316;28;20507;-71
2022/11/25 01:46:21;;;;;;;20.67;5.20;;;8.80;99.90;;;;;;5024821;28;20210;-72
2022/11/25 01:48:54;;;;;;;22.33;4.90;;;8.80;99.90;;;;;;5020530;28;20218;-71
2022/11/25 01:51:54;;;;;;;15.57;5.17;;;8.80;99.90;;;;;;5022272;28;20300;-70
2022/11/25 01:54:27;;;;;;;15.70;5.10;;;8.80;99.90;;;;;;5022058;28;20698;-71
2022/11/25 01:57:02;;;;;;;18.87;4.90;;;8.80;99.90;;;;;;5018135;28;20307;-72
2022/11/25 01:59:32;;;;;;;15.13;5.47;;;8.80;99.90;;;;;;5017160;28;20219;-71
2022/11/25 02:01:59;;;;;;;22.80;4.67;;;8.80;99.90;;;;;;5002926;28;20257;-71
2022/11/25 02:04:32;;;;;;;16.77;5.07;;;8.80;99.90;;;;;;5020548;28;20621;-71
2022/11/25 02:07:28;;;;;;;20.33;4.87;;;8.80;99.90;;;;;;5018361;28;20235;-70
2022/11/25 02:09:56;;;;;;;21.10;5.13;;;8.80;99.90;;;;;;5014808;28;20209;-70
2022/11/25 02:12:23;;;;;;;12.50;4.77;;;8.80;99.90;;;;;;5021868;28;20225;-71
2022/11/25 02:14:52;;;;;;;19.83;5.13;;;8.80;99.90;;;;;;5036397;28;20274;-70
2022/11/25 02:17:19;;;;;;;24.87;5.27;;;8.80;99.90;;;;;;5019241;28;20209;-70
2022/11/25 02:20:02;;;;;;;22.73;5.13;;;8.80;99.90;;;;;;5023326;28;20319;-70
2022/11/25 02:23:05;;;;;;;22.27;5.40;;;8.80;99.90;;;;;;5019844;28;20261;-70
2022/11/25 02:25:35;;;;;;;21.77;5.80;;;8.80;99.90;;;;;;5017548;28;20219;-70
2022/11/25 02:28:18;;;;;;;24.83;5.50;;;8.80;99.90;;;;;;5022244;28;20632;-71
2022/11/25 02:30:46;;;;;;;20.50;4.47;;;8.80;99.90;;;;;;5008421;28;20637;-70
2022/11/25 02:33:14;;;;;;;17.00;4.13;;;8.80;99.90;;;;;;5019092;28;20203;-70
2022/11/25 02:36:02;;;;;;;12.97;5.17;;;8.80;99.90;;;;;;5027203;28;20553;-70
2022/11/25 02:38:46;;;;;;;18.17;4.63;;;8.80;99.90;;;;;;5040511;28;20303;-71
2022/11/25 02:41:21;;;;;;;17.30;4.80;;;8.80;99.90;;;;;;5040388;28;20291;-70
2022/11/25 02:43:48;;;;;;;26.70;4.70;;;8.80;99.90;;;;;;5035806;28;20727;-70
2022/11/25 02:46:18;;;;;;;27.53;4.83;;;8.90;99.90;;;;;;5041031;28;20207;-71
2022/11/25 02:48:49;;;;;;;23.93;5.50;;;8.90;99.90;;;;;;5039803;28;20217;-70
2022/11/25 02:51:37;;;;;;;23.80;4.77;;;8.90;99.90;;;;;;5044620;28;20210;-70
2022/11/25 02:54:05;;;;;;;21.27;4.53;;;8.90;99.90;;;;;;5033738;28;20210;-71
2022/11/25 02:56:33;;;;;;;15.77;4.87;;;8.90;99.90;;;;;;5056869;28;20254;-71
2022/11/25 02:59:01;;;;;;;18.50;5.27;;;8.90;99.90;;;;;;5036674;28;20228;-70
2022/11/25 03:01:30;;;;;;;20.53;5.47;;;8.90;99.90;;;;;;5040187;28;20212;-70
2022/11/25 03:03:57;;;;;;;16.87;4.80;;;8.90;99.90;;;;;;5038010;28;20232;-71
2022/11/25 03:06:24;;;;;;;20.80;4.83;;;8.90;99.90;;;;;;5041483;28;20265;-71
2022/11/25 03:08:51;;;;;;;25.10;5.23;;;8.90;99.90;;;;;;5022778;28;20568;-71
2022/11/25 03:11:18;;;;;;;20.03;4.93;;;8.90;99.90;;;;;;5042597;28;20231;-72
2022/11/25 03:13:44;;;;;;;19.47;5.17;;;8.90;99.90;;;;;;5030405;28;20579;-70
2022/11/25 03:16:11;;;;;;;24.50;6.47;;;8.90;99.90;;;;;;5044131;28;20213;-71
2022/11/25 03:18:38;;;;;;;14.23;4.87;;;8.90;99.90;;;;;;5040526;28;20208;-71
2022/11/25 03:21:06;;;;;;;21.43;4.90;;;8.90;99.90;;;;;;5045572;28;20205;-71
2022/11/25 03:23:32;;;;;;;20.10;5.20;;;8.90;99.90;;;;;;5029001;28;20711;-69
2022/11/25 03:26:04;;;;;;;22.63;5.43;;;8.80;99.90;;;;;;5031242;28;20241;-71
2022/11/25 03:28:31;;;;;;;22.83;5.63;;;8.90;99.90;;;;;;5040342;28;20227;-70
2022/11/25 03:30:57;;;;;;;27.23;4.83;;;8.80;99.90;;;;;;5046340;28;20212;-71
2022/11/25 03:33:24;;;;;;;18.17;5.43;;;8.80;99.90;;;;;;5043450;28;20214;-71
2022/11/25 03:35:51;;;;;;;22.00;5.60;;;8.90;99.90;;;;;;5042856;28;20267;-71
2022/11/25 03:38:18;;;;;;;20.00;6.17;;;8.90;99.90;;;;;;5041325;28;20526;-70
2022/11/25 03:40:46;;;;;;;17.83;5.97;;;8.90;99.90;;;;;;5043507;28;20213;-71
2022/11/25 03:43:12;;;;;;;27.10;6.63;;;8.90;99.90;;;;;;5043743;28;20228;-71
2022/11/25 03:45:39;;;;;;;19.77;5.37;;;8.90;99.90;;;;;;5041134;28;20207;-71
2022/11/25 03:48:06;;;;;;;21.80;5.13;;;8.90;99.90;;;;;;5042268;28;20282;-71
2022/11/25 03:50:33;;;;;;;19.93;5.20;;;8.90;99.90;;;;;;5040824;28;20241;-71
2022/11/25 03:52:59;;;;;;;21.63;5.13;;;8.90;99.90;;;;;;5048396;28;20231;-72
2022/11/25 03:55:26;;;;;;;14.57;5.07;;;8.90;99.90;;;;;;5039112;28;20216;-72
2022/11/25 03:57:53;;;;;;;16.60;4.67;;;8.90;99.90;;;;;;5044310;28;20745;-71
2022/11/25 04:00:20;;;;;;;15.67;5.37;;;9.00;99.90;;;;;;5021990;28;20309;-72
2022/11/25 04:02:46;;;;;;;18.00;4.77;;;8.90;99.90;;;;;;5042985;28;20205;-71
2022/11/25 04:05:13;;;;;;;18.30;5.87;;;9.00;99.90;;;;;;5040904;28;20217;-72
2022/11/25 04:07:40;;;;;;;20.23;5.80;;;9.00;99.90;;;;;;5025511;28;20292;-71
2022/11/25 04:10:08;;;;;;;21.33;5.43;;;9.00;99.90;;;;;;5057651;28;20302;-71
2022/11/25 04:12:46;;;;;;;24.60;5.23;;;9.00;99.90;;;;;;5044265;28;20307;-71
2022/11/25 04:15:15;;;;;;;16.30;5.40;;;9.00;99.90;;;;;;5055149;28;20273;-71
2022/11/25 04:17:42;;;;;;;23.47;6.10;;;9.00;99.90;;;;;;5039309;28;20700;-71
2022/11/25 04:20:10;;;;;;;29.57;6.97;;;8.90;99.90;;;;;;5030067;28;20212;-71
2022/11/25 04:22:37;;;;;;;17.87;5.10;;;9.00;99.90;;;;;;5039558;28;20254;-73
2022/11/25 04:25:04;;;;;;;16.97;5.30;;;9.00;99.90;;;;;;5043209;28;20239;-71
2022/11/25 04:27:31;;;;;;;24.77;5.53;;;9.00;99.90;;;;;;5039340;28;20225;-73
2022/11/25 04:29:58;;;;;;;20.33;5.40;;;9.00;99.90;;;;;;5043698;28;20238;-73
2022/11/25 04:32:24;;;;;;;21.90;5.27;;;9.00;99.90;;;;;;5040770;28;20665;-71
2022/11/25 04:34:51;;;;;;;19.73;5.93;;;9.00;99.90;;;;;;5041720;28;20295;-72
2022/11/25 04:37:18;;;;;;;20.20;5.30;;;9.00;99.90;;;;;;5041122;28;20217;-72
2022/11/25 04:39:45;;;;;;;17.43;4.83;;;9.00;99.90;;;;;;5038178;28;20223;-71
2022/11/25 04:44:58;;;;;;;20.37;5.53;;;9.00;99.90;;;;;;5041162;28;20253;-71
2022/11/25 04:47:45;;;;;;;25.80;6.10;;;9.00;99.90;;;;;;5032151;28;20215;-72
2022/11/25 04:50:15;;;;;;;22.13;5.30;;;9.00;99.90;;;;;;5042295;28;20289;-72
2022/11/25 04:52:42;;;;;;;23.07;5.50;;;9.00;99.90;;;;;;5041054;28;20212;-71
2022/11/25 04:55:09;;;;;;;15.13;5.07;;;9.00;99.90;;;;;;5038112;28;20308;-72
2022/11/25 04:57:36;;;;;;;18.13;4.83;;;9.00;99.90;;;;;;5040350;28;20251;-72
2022/11/25 05:00:04;;;;;;;21.23;4.53;;;9.00;99.90;;;;;;5043417;28;20315;-72
2022/11/25 05:02:31;;;;;;;16.03;4.50;;;9.00;99.90;;;;;;5027401;28;20208;-71
2022/11/25 05:04:58;;;;;;;20.63;5.77;;;9.10;99.90;;;;;;5042376;28;20239;-71
2022/11/25 05:07:27;;;;;;;16.70;4.77;;;9.00;99.90;;;;;;5039514;28;20199;-71
2022/11/25 05:09:54;;;;;;;22.13;5.30;;;9.00;99.90;;;;;;5044680;28;20623;-72
2022/11/25 05:12:25;;;;;;;22.90;5.70;;;9.00;99.90;;;;;;5035869;28;20217;-71
2022/11/25 05:14:53;;;;;;;22.27;5.27;;;9.00;99.90;;;;;;5057094;28;20235;-71
2022/11/25 05:17:25;;;;;;;21.67;5.47;;;9.00;99.90;;;;;;5043057;28;20326;-70
2022/11/25 05:19:52;;;;;;;19.90;4.90;;;9.00;99.90;;;;;;5037136;28;20224;-71
2022/11/25 05:22:22;;;;;;;15.20;5.07;;;8.90;99.90;;;;;;5041555;28;20635;-71
2022/11/25 05:24:49;;;;;;;16.67;4.53;;;8.90;99.90;;;;;;5042084;28;20245;-71
2022/11/25 05:27:17;;;;;;;18.53;5.00;;;8.90;99.90;;;;;;5042259;28;20256;-71
2022/11/25 05:29:44;;;;;;;17.80;5.30;;;8.90;99.90;;;;;;5024285;28;20215;-71
2022/11/25 05:32:11;;;;;;;15.80;5.37;;;8.90;99.90;;;;;;5040543;28;20293;-71
2022/11/25 05:34:41;;;;;;;23.70;5.27;;;8.90;99.90;;;;;;5039613;28;20216;-72
2022/11/25 05:37:09;;;;;;;15.90;4.33;;;8.90;99.90;;;;;;5037520;28;20202;-71
2022/11/25 05:39:36;;;;;;;11.30;3.90;;;8.90;99.90;;;;;;5043332;28;20685;-71
2022/11/25 05:42:03;;;;;;;10.17;3.10;;;8.90;99.90;;;;;;5037767;28;20256;-71
2022/11/25 05:44:29;;;;;;;14.90;4.23;;;8.90;99.90;;;;;;5045902;28;20226;-72
2022/11/25 05:46:56;;;;;;;12.20;3.20;;;8.90;99.90;;;;;;5028353;28;20203;-70
2022/11/25 05:49:23;;;;;;;12.70;3.57;;;8.80;99.90;;;;;;5039256;28;20226;-71
2022/11/25 05:51:50;;;;;;;11.63;3.10;;;8.80;99.90;;;;;;5045065;28;20286;-71
2022/11/25 05:54:17;;;;;;;8.23;3.23;;;8.80;99.90;;;;;;5032356;28;20207;-70
2022/11/25 05:56:43;;;;;;;9.23;2.60;;;8.80;99.90;;;;;;5043832;28;20699;-71
2022/11/25 05:59:10;;;;;;;11.73;2.90;;;8.80;99.90;;;;;;5038382;28;20227;-70
2022/11/25 06:01:37;;;;;;;18.63;3.93;;;8.80;99.90;;;;;;5044772;28;20293;-70
2022/11/25 06:04:04;;;;;;;11.43;3.10;;;8.90;99.90;;;;;;5056525;28;20223;-71
2022/11/25 06:06:31;;;;;;;9.80;2.47;;;8.90;99.90;;;;;;5037878;28;20294;-70
2022/11/25 06:08:58;;;;;;;9.40;2.57;;;8.90;99.90;;;;;;5041079;28;20294;-71
2022/11/25 06:11:25;;;;;;;8.97;2.60;;;8.90;99.90;;;;;;5027769;28;20356;-71
2022/11/25 06:13:54;;;;;;;11.67;2.90;;;8.90;99.90;;;;;;5038733;28;20224;-72
2022/11/25 06:16:22;;;;;;;13.27;3.03;;;8.90;99.90;;;;;;5038736;28;20218;-71
2022/11/25 06:18:50;;;;;;;9.70;2.90;;;8.90;99.90;;;;;;5042141;28;20291;-71
2022/11/25 06:21:17;;;;;;;11.77;2.77;;;8.80;99.90;;;;;;5024585;28;20242;-72
2022/11/25 06:23:44;;;;;;;16.00;3.33;;;8.80;99.90;;;;;;5048539;28;20642;-71
2022/11/25 06:26:18;;;;;;;15.13;3.30;;;8.80;99.90;;;;;;5061492;28;20189;-72
2022/11/25 06:28:45;;;;;;;11.00;3.77;;;8.80;99.90;;;;;;5046879;28;20301;-71
2022/11/25 06:31:15;;;;;;;16.23;3.87;;;8.80;99.90;;;;;;5042667;28;20195;-70
2022/11/25 06:33:45;;;;;;;13.93;3.10;;;8.70;99.90;;;;;;5044940;28;20211;-70
2022/11/25 06:36:16;;;;;;;13.63;3.63;;;8.70;99.90;;;;;;5033628;28;20298;-70
2022/11/25 06:38:48;;;;;;;15.20;3.63;;;8.70;99.90;;;;;;5064428;28;20213;-72
2022/11/25 06:41:15;;;;;;;11.73;4.17;;;8.70;99.90;;;;;;5036035;28;20206;-70
2022/11/25 06:43:42;;;;;;;11.30;4.30;;;8.70;99.90;;;;;;5045065;28;20237;-70
2022/11/25 06:46:14;;;;;;;14.60;5.13;;;8.60;99.90;;;;;;5030071;28;20203;-71
2022/11/25 06:48:48;;;;;;;14.43;5.73;;;8.60;99.90;;;;;;5045560;28;20324;-71
2022/11/25 06:51:17;;;;;;;15.73;5.97;;;8.60;99.90;;;;;;5045260;28;20297;-71
2022/11/25 06:53:44;;;;;;;15.50;5.77;;;8.60;99.90;;;;;;5049422;28;20734;-70
2022/11/25 06:56:12;;;;;;;16.30;5.37;;;8.60;99.90;;;;;;5040829;28;20221;-71
2022/11/25 06:58:40;;;;;;;12.40;5.27;;;8.60;99.90;;;;;;5042253;28;20221;-71
2022/11/25 07:01:12;;;;;;;19.93;6.27;;;8.60;99.90;;;;;;5045899;28;20205;-70
2022/11/25 07:03:40;;;;;;;11.73;5.90;;;8.60;99.90;;;;;;5029045;28;20566;-71
2022/11/25 07:06:07;;;;;;;19.10;6.87;;;8.60;99.90;;;;;;5045397;28;20208;-71
2022/11/25 07:08:34;;;;;;;15.10;6.43;;;8.60;99.90;;;;;;5046460;28;20215;-70
2022/11/25 07:11:06;;;;;;;19.07;6.00;;;8.60;99.90;;;;;;5043793;28;20211;-70
2022/11/25 07:13:33;;;;;;;13.47;6.40;;;8.60;99.90;;;;;;5042189;28;20220;-71
2022/11/25 07:16:01;;;;;;;13.67;6.13;;;8.60;99.90;;;;;;5044498;28;20244;-70
2022/11/25 07:18:31;;;;;;;17.37;6.30;;;8.50;99.90;;;;;;5041880;28;20227;-70
2022/11/25 07:21:07;;;;;;;14.60;6.63;;;8.50;99.90;;;;;;5030205;28;20373;-70
2022/11/25 07:23:35;;;;;;;12.50;5.10;;;8.50;99.90;;;;;;5038522;28;20552;-70
2022/11/25 07:26:07;;;;;;;18.40;6.20;;;8.50;99.90;;;;;;5046988;28;20219;-70
2022/11/25 07:28:35;;;;;;;17.50;5.90;;;8.50;99.90;;;;;;5044406;28;20238;-70
2022/11/25 07:31:23;;;;;;;12.17;6.03;;;8.50;99.90;;;;;;5058564;28;20674;-71
2022/11/25 07:34:03;;;;;;;15.57;6.40;;;8.50;99.90;;;;;;5046549;28;20225;-71
2022/11/25 07:36:31;;;;;;;12.77;5.53;;;8.40;99.90;;;;;;5043757;28;20295;-70
2022/11/25 07:39:00;;;;;;;18.33;6.97;;;8.40;99.90;;;;;;5041955;28;20299;-71
2022/11/25 07:41:28;;;;;;;17.47;6.37;;;8.50;99.90;;;;;;5048530;28;20224;-70
2022/11/25 07:43:56;;;;;;;14.03;5.93;;;8.40;99.90;;;;;;5047980;28;20598;-71
2022/11/25 07:46:29;;;;;;;15.53;5.83;;;8.50;99.90;;;;;;5042748;28;20320;-69
2022/11/25 07:49:04;;;;;;;11.70;5.80;;;8.50;99.90;;;;;;5025908;28;20224;-71
2022/11/25 07:51:47;;;;;;;19.37;6.07;;;8.50;99.90;;;;;;5046056;28;20210;-71
2022/11/25 07:54:14;;;;;;;12.37;6.07;;;8.50;99.90;;;;;;5043388;28;20226;-69
2022/11/25 07:56:43;;;;;;;17.60;7.07;;;8.50;99.90;;;;;;5048320;28;20277;-69
2022/11/25 07:59:16;;;;;;;15.43;6.33;;;8.50;99.90;;;;;;5027375;28;20281;-70
2022/11/25 08:01:43;;;;;;;19.57;6.87;;;8.60;99.90;;;;;;5043987;28;20276;-71
2022/11/25 08:04:13;;;;;;;20.63;7.20;;;8.60;99.90;;;;;;5046293;28;20604;-71
2022/11/25 08:06:47;;;;;;;13.17;6.40;;;8.60;99.90;;;;;;5046368;28;20256;-70
2022/11/25 08:09:18;;;;;;;15.23;6.03;;;8.60;99.90;;;;;;5027564;28;20661;-70
2022/11/25 08:11:46;;;;;;;17.90;7.43;;;8.60;99.90;;;;;;5052556;28;20263;-70
2022/11/25 08:14:14;;;;;;;16.13;6.10;;;8.60;99.90;;;;;;5065378;28;20265;-70
2022/11/25 08:16:41;;;;;;;15.77;5.97;;;8.60;99.90;;;;;;5048299;28;20211;-68
2022/11/25 08:19:12;;;;;;;16.27;6.00;;;8.70;99.90;;;;;;5029048;28;20210;-69
2022/11/25 08:21:39;;;;;;;25.30;8.43;;;8.70;99.90;;;;;;5044202;28;20291;-70
2022/11/25 08:24:06;;;;;;;17.97;6.37;;;8.60;99.90;;;;;;5043328;28;20648;-69
2022/11/25 08:26:36;;;;;;;16.23;6.90;;;8.70;99.90;;;;;;5046734;28;20227;-70
2022/11/25 08:29:05;;;;;;;17.73;6.23;;;8.60;99.90;;;;;;5033068;28;20199;-70
2022/11/25 08:31:34;;;;;;;11.93;6.77;;;8.70;99.90;;;;;;5034312;28;20211;-70
2022/11/25 08:34:02;;;;;;;12.60;5.43;;;8.60;99.90;;;;;;5047357;28;20199;-69
2022/11/25 08:36:29;;;;;;;15.57;5.83;;;8.70;99.90;;;;;;5041454;28;20232;-69
2022/11/25 08:38:58;;;;;;;15.63;6.10;;;8.70;99.90;;;;;;5042669;28;20297;-69
2022/11/25 08:41:29;;;;;;;14.83;5.23;;;8.70;99.90;;;;;;5046611;28;20221;-69
2022/11/25 08:43:57;;;;;;;11.20;5.73;;;8.70;99.90;;;;;;5029395;28;20264;-69
2022/11/25 08:46:28;;;;;;;10.50;5.80;;;8.70;99.90;;;;;;5026992;28;20206;-70
2022/11/25 08:48:55;;;;;;;13.53;5.90;;;8.70;99.90;;;;;;5038418;28;20223;-68
2022/11/25 08:51:25;;;;;;;10.93;5.90;;;8.70;99.90;;;;;;5043045;28;20317;-69
2022/11/25 08:53:53;;;;;;;16.10;5.70;;;8.70;99.90;;;;;;5042408;28;20211;-70
2022/11/25 08:56:22;;;;;;;12.97;5.80;;;8.70;99.90;;;;;;5040655;28;20195;-70
2022/11/25 08:58:53;;;;;;;10.30;5.77;;;8.80;99.90;;;;;;5044305;28;20674;-70
2022/11/25 09:01:22;;;;;;;15.73;5.87;;;8.70;99.90;;;;;;5043384;28;20199;-70
2022/11/25 09:03:51;;;;;;;9.33;5.60;;;8.80;99.90;;;;;;5045085;28;20200;-72
2022/11/25 09:06:20;;;;;;;13.93;5.97;;;8.80;99.90;;;;;;5039771;28;20202;-71
2022/11/25 09:08:47;;;;;;;12.03;5.80;;;8.80;99.90;;;;;;5045439;28;20205;-70
2022/11/25 09:11:14;;;;;;;12.23;5.77;;;8.70;99.90;;;;;;5027258;28;20672;-70
2022/11/25 09:13:41;;;;;;;13.80;5.73;;;8.80;99.90;;;;;;5045328;28;20211;-69
2022/11/25 09:16:08;;;;;;;16.10;5.60;;;8.80;99.90;;;;;;5041208;28;20232;-70
2022/11/25 09:18:36;;;;;;;10.17;4.20;;;8.80;99.90;;;;;;5044903;28;20593;-70
2022/11/25 09:21:11;;;;;;;11.20;5.53;;;8.80;99.90;;;;;;5044126;28;20221;-69
2022/11/25 09:23:39;;;;;;;9.80;5.03;;;8.80;99.90;;;;;;5039937;28;20214;-67
2022/11/25 09:26:07;;;;;;;14.97;5.90;;;8.80;99.90;;;;;;5058729;28;20265;-69
2022/11/25 09:28:35;;;;;;;14.80;4.67;;;8.80;99.90;;;;;;5025224;28;20671;-68
2022/11/25 09:31:07;;;;;;;15.93;5.80;;;8.90;99.90;;;;;;5041957;28;20267;-70
2022/11/25 09:33:34;;;;;;;14.07;5.10;;;8.90;99.90;;;;;;5041203;28;20204;-70
2022/11/25 09:36:02;;;;;;;12.77;4.93;;;8.90;99.90;;;;;;5026245;28;20326;-68
2022/11/25 09:38:29;;;;;;;10.07;4.67;;;8.90;99.90;;;;;;5059578;28;20239;-69
2022/11/25 09:41:06;;;;;;;8.60;4.53;;;8.90;99.90;;;;;;5043303;28;20204;-69
2022/11/25 09:47:07;;;;;;;13.07;4.70;;;9.00;99.90;;;;;;5041952;28;20609;-69
2022/11/25 09:50:01;;;;;;;11.80;5.00;;;9.00;99.90;;;;;;5022411;28;20692;-69
2022/11/25 09:52:52;;;;;;;11.20;5.10;;;9.10;99.90;;;;;;5027256;28;20641;-70
2022/11/25 09:55:22;;;;;;;16.67;4.63;;;9.10;99.90;;;;;;5028505;28;20299;-70
2022/11/25 09:58:08;;;;;;;11.87;4.40;;;9.20;99.90;;;;;;5042056;28;20232;-69
2022/11/25 10:00:44;;;;;;;11.20;4.50;;;9.10;99.90;;;;;;5029305;28;20294;-71
2022/11/25 10:03:36;;;;;;;14.57;5.10;;;9.10;99.90;;;;;;5040933;28;20242;-70
2022/11/25 10:06:17;;;;;;;12.43;5.90;;;9.20;99.90;;;;;;5039665;28;20228;-68
2022/11/25 10:08:50;;;;;;;12.20;4.83;;;9.20;99.90;;;;;;5042769;28;20543;-68
2022/11/25 10:11:23;;;;;;;12.13;4.20;;;9.30;99.90;;;;;;5021499;28;20299;-69
2022/11/25 10:13:59;;;;;;;14.93;4.90;;;9.30;99.90;;;;;;5059238;28;20283;-69
2022/11/25 10:16:47;;;;;;;13.77;4.93;;;9.30;99.90;;;;;;5028833;28;20241;-68
2022/11/25 10:19:31;;;;;;;12.87;5.23;;;9.30;99.90;;;;;;5027598;28;20243;-69
2022/11/25 10:22:06;;;;;;;12.30;4.80;;;9.40;99.90;;;;;;5029898;28;20206;-69
2022/11/25 10:24:33;;;;;;;8.53;4.10;;;9.40;99.90;;;;;;5051236;28;20676;-68
2022/11/25 10:27:16;;;;;;;12.73;5.47;;;9.40;99.90;;;;;;5053556;28;20716;-70
2022/11/25 10:29:49;;;;;;;15.00;4.73;;;9.50;99.90;;;;;;5041459;28;20238;-70
2022/11/25 10:32:21;;;;;;;10.10;4.33;;;9.50;99.90;;;;;;5045629;28;20327;-69
2022/11/25 10:34:53;;;;;;;15.60;3.87;;;9.60;99.90;;;;;;5055327;28;20307;-70
2022/11/25 10:37:28;;;;;;;11.37;4.70;;;9.60;99.90;;;;;;5052829;28;20766;-69
2022/11/25 10:39:55;;;;;;;9.43;4.63;;;9.60;99.90;;;;;;5056049;28;20296;-69
2022/11/25 10:42:25;;;;;;;13.83;4.10;;;9.60;99.90;;;;;;5050119;28;20296;-69
2022/11/25 10:44:53;;;;;;;17.30;4.77;;;9.60;99.90;;;;;;5055505;28;20715;-69
2022/11/25 10:47:41;;;;;;;12.50;4.93;;;9.70;99.90;;;;;;5055113;28;20262;-69
2022/11/25 10:50:23;;;;;;;13.90;4.83;;;9.70;99.90;;;;;;5056090;28;20291;-69
2022/11/25 10:53:09;;;;;;;13.37;4.30;;;9.70;99.90;;;;;;5046333;28;20376;-70
2022/11/25 10:55:36;;;;;;;9.33;4.23;;;9.80;99.90;;;;;;5047779;28;20323;-69
2022/11/25 10:58:33;;;;;;;12.57;4.27;;;9.80;99.90;;;;;;5043822;28;20311;-70
2022/11/25 11:01:24;;;;;;;9.93;4.23;;;9.80;99.90;;;;;;5027146;28;20224;-70
2022/11/25 11:04:04;;;;;;;7.03;4.03;;;9.90;99.90;;;;;;5046948;28;20209;-69
2022/11/25 11:06:42;;;;;;;13.07;4.17;;;9.90;99.90;;;;;;5048898;28;20813;-70
2022/11/25 11:09:32;;;;;;;13.60;4.17;;;9.90;99.90;;;;;;5047503;28;20252;-70
2022/11/25 11:12:13;;;;;;;12.90;3.70;;;10.00;99.90;;;;;;5044658;28;20721;-70
2022/11/25 11:14:40;;;;;;;13.50;4.47;;;10.00;99.90;;;;;;5046560;28;20211;-68
2022/11/25 11:17:30;;;;;;;8.27;4.50;;;10.00;99.90;;;;;;5048290;28;20574;-69
2022/11/25 11:20:05;;;;;;;11.90;4.13;;;10.10;99.90;;;;;;5030754;28;20205;-70
2022/11/25 11:22:34;;;;;;;12.77;4.57;;;10.10;99.90;;;;;;5039248;28;20269;-69
2022/11/25 11:25:28;;;;;;;10.17;4.03;;;10.10;99.90;;;;;;5044198;28;20628;-70
2022/11/25 11:27:57;;;;;;;15.43;4.03;;;10.20;99.90;;;;;;5025811;28;20280;-69
2022/11/25 11:30:30;;;;;;;9.83;3.80;;;10.20;99.90;;;;;;5048314;28;20201;-69
2022/11/25 11:33:03;;;;;;;12.97;5.17;;;10.30;99.90;;;;;;5029114;28;20302;-70
2022/11/25 11:35:39;;;;;;;15.40;4.43;;;10.30;99.90;;;;;;5047655;28;20236;-70
2022/11/25 11:38:30;;;;;;;13.67;5.03;;;10.30;99.90;;;;;;5049276;28;20219;-69
2022/11/25 11:41:09;;;;;;;11.27;4.20;;;10.40;99.90;;;;;;5049159;28;20228;-69
2022/11/25 11:43:44;;;;;;;13.47;4.60;;;10.40;99.90;;;;;;5054906;28;20228;-68
2022/11/25 11:46:26;;;;;;;12.03;4.50;;;10.50;99.90;;;;;;5051416;28;20323;-69
2022/11/25 11:49:04;;;;;;;11.63;5.03;;;10.50;99.90;;;;;;5045971;28;20212;-69
2022/11/25 11:51:51;;;;;;;10.53;4.27;;;10.50;99.90;;;;;;5043765;28;20220;-69
2022/11/25 11:54:35;;;;;;;13.87;5.10;;;10.50;99.90;;;;;;5046406;28;20212;-69
2022/11/25 11:57:21;;;;;;;12.53;4.40;;;10.50;99.90;;;;;;5044671;28;20213;-69
2022/11/25 11:59:52;;;;;;;14.13;4.80;;;10.50;99.90;;;;;;5043757;28;20209;-69
2022/11/25 12:02:22;;;;;;;17.97;4.63;;;10.60;99.90;;;;;;5041711;28;20512;-70
2022/11/25 12:05:14;;;;;;;18.00;4.77;;;10.60;99.90;;;;;;5044025;28;20284;-69
2022/11/25 12:08:08;;;;;;;11.77;4.27;;;10.70;99.90;;;;;;5042770;28;20219;-68
2022/11/25 12:10:47;;;;;;;14.00;4.93;;;10.70;99.90;;;;;;5047896;28;20194;-70
2022/11/25 12:13:27;;;;;;;12.73;4.70;;;10.70;99.90;;;;;;5045480;28;20307;-68
2022/11/25 12:16:03;;;;;;;17.00;7.30;;;10.80;99.90;;;;;;5043635;28;20233;-69
2022/11/25 12:18:49;;;;;;;12.37;4.73;;;10.80;99.90;;;;;;5046023;28;20680;-69
2022/11/25 12:21:43;;;;;;;18.57;5.47;;;10.80;99.90;;;;;;5061683;28;20296;-69
2022/11/25 12:24:18;;;;;;;14.87;4.80;;;10.80;99.90;;;;;;5045353;28;20232;-69
2022/11/25 12:27:09;;;;;;;10.80;4.53;;;10.80;99.90;;;;;;5045525;28;20338;-69
2022/11/25 12:29:59;;;;;;;15.67;5.17;;;10.80;99.90;;;;;;5063273;28;20303;-70
2022/11/25 12:32:44;;;;;;;15.17;6.07;;;10.80;99.90;;;;;;5040268;28;20217;-70
2022/11/25 12:35:21;;;;;;;17.67;4.77;;;10.80;99.90;;;;;;5044670;28;20241;-69
2022/11/25 12:38:21;;;;;;;14.77;5.23;;;10.90;99.90;;;;;;5047227;28;20205;-70
2022/11/25 12:41:26;;;;;;;16.77;4.73;;;10.90;99.90;;;;;;5021212;28;20628;-70
2022/11/25 12:44:02;;;;;;;18.03;4.63;;;10.90;99.90;;;;;;5048794;28;20201;-69
2022/11/25 12:46:31;;;;;;;16.73;5.23;;;11.00;99.90;;;;;;5032873;28;20307;-69
2022/11/25 12:49:00;;;;;;;18.77;5.67;;;11.00;99.90;;;;;;5046274;28;20284;-70
2022/11/25 12:51:55;;;;;;;16.47;5.00;;;11.00;99.90;;;;;;5046582;28;20205;-70
2022/11/25 12:54:49;;;;;;;16.37;4.43;;;11.10;99.90;;;;;;5043918;28;20633;-70
2022/11/25 12:57:37;;;;;;;14.83;4.40;;;11.20;99.90;;;;;;5047948;28;20508;-69
2022/11/25 13:00:25;;;;;;;15.73;5.00;;;11.20;99.90;;;;;;5051399;28;20248;-69
2022/11/25 13:03:29;;;;;;;13.53;4.73;;;11.20;99.90;;;;;;5048924;28;20680;-69
2022/11/25 13:06:18;;;;;;;15.13;4.63;;;11.30;99.90;;;;;;5054410;28;20725;-70
2022/11/25 13:09:06;;;;;;;22.80;4.77;;;11.30;99.90;;;;;;5044514;28;20292;-69
2022/11/25 13:11:51;;;;;;;12.30;4.87;;;11.30;99.90;;;;;;5051742;28;20347;-68
2022/11/25 13:14:18;;;;;;;15.90;5.37;;;11.30;99.90;;;;;;5048449;28;20224;-68
2022/11/25 13:16:47;;;;;;;13.73;4.93;;;11.30;99.90;;;;;;5053179;28;20547;-68
2022/11/25 13:19:19;;;;;;;15.37;4.83;;;11.30;99.90;;;;;;5048337;28;20208;-69
2022/11/25 13:21:59;;;;;;;18.60;5.27;;;11.30;99.90;;;;;;5042760;28;20263;-69
2022/11/25 13:24:39;;;;;;;21.60;5.37;;;11.30;99.90;;;;;;5044177;28;20295;-69